Time;durP1;ratioP1;P1;durP2;ratioP2;P2;SDS_P1;SDS_P2;PMS_P1;PMS_P2;Temp;Humidity;BMP_temperature;BMP_pressure;BME280_temperature;BME280_humidity;BME280_pressure;Samples;Min_cycle;Max_cycle;Signal;HPM_P1;HPM_P2
2021/06/09 00:01:26;;;;;;;6.75;6.07;;;16.20;99.90;;;;;;5057268;28;20032;-88
2021/06/09 00:03:52;;;;;;;6.25;5.65;;;16.20;99.90;;;;;;5057152;28;20036;-88
2021/06/09 00:06:17;;;;;;;6.55;5.95;;;16.10;99.90;;;;;;5057078;28;20033;-88
2021/06/09 00:08:43;;;;;;;6.20;5.60;;;16.10;99.90;;;;;;5057189;28;20055;-88
2021/06/09 00:11:09;;;;;;;6.10;5.50;;;16.10;99.90;;;;;;5057004;28;20032;-88
2021/06/09 00:13:35;;;;;;;8.52;5.55;;;16.10;99.90;;;;;;5057230;28;20066;-88
2021/06/09 00:16:11;;;;;;;6.70;6.00;;;16.00;99.90;;;;;;5057116;28;20072;-88
2021/06/09 00:18:40;;;;;;;6.57;5.97;;;16.00;99.90;;;;;;5057100;28;20378;-88
2021/06/09 00:21:06;;;;;;;6.28;5.68;;;16.00;99.90;;;;;;5075385;28;20126;-88
2021/06/09 00:23:32;;;;;;;6.57;5.93;;;16.00;99.90;;;;;;5078367;28;20017;-88
2021/06/09 00:26:02;;;;;;;6.18;5.65;;;16.00;99.90;;;;;;5077641;28;20041;-89
2021/06/09 00:28:29;;;;;;;6.10;5.60;;;15.90;99.90;;;;;;5076300;28;20386;-88
2021/06/09 00:30:55;;;;;;;6.63;6.03;;;15.90;99.90;;;;;;5057214;28;20067;-88
2021/06/09 00:33:20;;;;;;;6.28;5.65;;;15.90;99.90;;;;;;5075126;28;20406;-88
2021/06/09 00:35:47;;;;;;;5.30;4.80;;;15.90;99.90;;;;;;5074202;28;20032;-88
2021/06/09 00:38:13;;;;;;;6.35;5.32;;;15.90;99.90;;;;;;5056230;28;20044;-88
2021/06/09 00:40:38;;;;;;;6.05;5.45;;;15.90;99.90;;;;;;5059528;28;20033;-89
2021/06/09 00:43:07;;;;;;;7.40;6.60;;;15.80;99.90;;;;;;5056321;28;20048;-90
2021/06/09 00:45:34;;;;;;;6.72;6.13;;;15.80;99.90;;;;;;5056246;28;20016;-89
2021/06/09 00:48:03;;;;;;;6.40;5.80;;;15.80;99.90;;;;;;5056474;28;20035;-89
2021/06/09 00:50:29;;;;;;;6.30;5.70;;;15.80;99.90;;;;;;5056003;28;20024;-89
2021/06/09 00:53:26;;;;;;;6.05;5.45;;;15.80;99.90;;;;;;5056105;28;20501;-89
2021/06/09 00:55:41;;;;;;;7.10;6.20;;;15.80;99.90;;;;;;5073239;28;20033;-89
2021/06/09 00:58:08;;;;;;;6.40;5.80;;;15.80;99.90;;;;;;5057420;28;20039;-89
2021/06/09 01:00:34;;;;;;;5.90;5.40;;;15.70;99.90;;;;;;5055864;28;20500;-89
2021/06/09 01:03:01;;;;;;;6.32;5.50;;;15.70;99.90;;;;;;5073753;28;20020;-89
2021/06/09 01:05:29;;;;;;;6.00;5.40;;;15.70;99.90;;;;;;5073598;28;20027;-89
2021/06/09 01:07:59;;;;;;;6.40;5.80;;;15.70;99.90;;;;;;5055732;28;20111;-89
2021/06/09 01:10:25;;;;;;;7.15;5.60;;;15.70;99.90;;;;;;5056202;28;20040;-89
2021/06/09 01:12:51;;;;;;;6.97;6.30;;;15.70;99.90;;;;;;5055652;28;20374;-89
2021/06/09 01:15:20;;;;;;;6.53;5.90;;;15.60;99.90;;;;;;5055682;28;20111;-89
2021/06/09 01:17:45;;;;;;;6.38;5.85;;;15.60;99.90;;;;;;5074958;28;20512;-89
2021/06/09 01:20:12;;;;;;;5.93;5.32;;;15.60;99.90;;;;;;5076941;28;20393;-89
2021/06/09 01:22:38;;;;;;;5.53;5.03;;;15.60;99.90;;;;;;5076189;28;20024;-89
2021/06/09 01:25:06;;;;;;;5.60;5.10;;;15.60;99.90;;;;;;5059502;28;20084;-89
2021/06/09 01:27:32;;;;;;;6.60;6.00;;;15.60;99.90;;;;;;5058839;28;20033;-89
2021/06/09 01:29:59;;;;;;;8.02;6.18;;;15.60;99.90;;;;;;5059849;28;20036;-89
2021/06/09 01:32:26;;;;;;;5.93;5.32;;;15.60;99.90;;;;;;5058739;28;20489;-89
2021/06/09 01:34:51;;;;;;;6.45;5.80;;;15.50;99.90;;;;;;5059081;28;20035;-88
2021/06/09 01:37:19;;;;;;;6.05;5.45;;;15.50;99.90;;;;;;5058571;28;20436;-89
2021/06/09 01:39:45;;;;;;;7.43;5.47;;;15.50;99.90;;;;;;5058882;28;20028;-89
2021/06/09 01:42:10;;;;;;;6.80;5.13;;;15.50;99.90;;;;;;5059171;28;20101;-89
2021/06/09 01:44:40;;;;;;;5.63;5.05;;;15.50;99.90;;;;;;5058815;28;20036;-89
2021/06/09 01:47:06;;;;;;;5.65;5.15;;;15.50;99.90;;;;;;5058484;28;20055;-89
2021/06/09 01:49:32;;;;;;;6.38;5.78;;;15.50;99.90;;;;;;5057947;28;20029;-89
2021/06/09 01:51:58;;;;;;;5.82;5.32;;;15.50;99.90;;;;;;5076617;28;20032;-89
2021/06/09 01:54:24;;;;;;;5.85;5.25;;;15.50;99.90;;;;;;5060648;28;20397;-89
2021/06/09 01:56:51;;;;;;;5.72;5.15;;;15.50;99.90;;;;;;5062311;28;20384;-89
2021/06/09 01:59:19;;;;;;;5.93;5.30;;;15.50;99.90;;;;;;5063028;28;20501;-89
2021/06/09 02:01:47;;;;;;;5.60;5.10;;;15.50;99.90;;;;;;5062873;28;20082;-89
2021/06/09 02:04:15;;;;;;;5.32;4.82;;;15.50;99.90;;;;;;5062403;28;20021;-88
2021/06/09 02:06:44;;;;;;;5.57;5.07;;;15.50;99.90;;;;;;5063039;28;20029;-89
2021/06/09 02:09:13;;;;;;;6.50;5.90;;;15.50;99.90;;;;;;5061446;28;20033;-89
2021/06/09 02:11:40;;;;;;;5.70;5.20;;;15.50;99.90;;;;;;5063741;28;20047;-90
2021/06/09 02:14:06;;;;;;;6.70;6.03;;;15.60;99.90;;;;;;5062203;28;20017;-89
2021/06/09 02:16:36;;;;;;;5.93;5.38;;;15.60;99.90;;;;;;5061767;28;20139;-89
2021/06/09 02:19:04;;;;;;;5.68;5.18;;;15.70;99.90;;;;;;5060211;28;20043;-89
2021/06/09 02:21:34;;;;;;;5.80;5.18;;;15.70;99.90;;;;;;5058930;28;20067;-89
2021/06/09 02:24:01;;;;;;;5.22;4.72;;;15.70;99.90;;;;;;5076910;28;20028;-89
2021/06/09 02:26:27;;;;;;;6.60;5.53;;;15.80;99.90;;;;;;5058996;28;20100;-89
2021/06/09 02:28:53;;;;;;;5.60;5.10;;;15.80;99.90;;;;;;5058675;28;20064;-89
2021/06/09 02:31:20;;;;;;;5.60;4.97;;;15.90;99.90;;;;;;5058982;28;20169;-89
2021/06/09 02:33:46;;;;;;;5.38;4.88;;;15.90;99.90;;;;;;5058668;28;20516;-89
2021/06/09 02:36:15;;;;;;;5.43;4.97;;;15.90;99.90;;;;;;5058706;28;20033;-89
2021/06/09 02:38:41;;;;;;;5.30;4.80;;;15.90;99.90;;;;;;5058733;28;20029;-89
2021/06/09 02:41:08;;;;;;;5.25;4.60;;;15.90;99.90;;;;;;5058700;28;20078;-89
2021/06/09 02:43:34;;;;;;;6.25;4.60;;;15.90;99.90;;;;;;5058613;28;20085;-89
2021/06/09 02:46:13;;;;;;;5.60;5.10;;;16.00;99.90;;;;;;5058569;28;20031;-89
2021/06/09 02:48:44;;;;;;;5.40;4.90;;;16.00;99.90;;;;;;5058658;28;20028;-89
2021/06/09 02:51:19;;;;;;;5.68;5.18;;;16.00;99.90;;;;;;5076706;28;20025;-89
2021/06/09 02:54:08;;;;;;;5.05;4.55;;;16.00;99.90;;;;;;5058896;28;20035;-89
2021/06/09 02:57:03;;;;;;;5.45;4.90;;;16.00;99.90;;;;;;5050233;28;20371;-89
2021/06/09 02:59:47;;;;;;;5.40;4.90;;;16.10;99.90;;;;;;5059713;28;20058;-89
2021/06/09 03:02:56;;;;;;;5.22;4.75;;;16.10;99.90;;;;;;5058345;28;20031;-89
2021/06/09 03:05:31;;;;;;;5.25;4.80;;;16.10;99.90;;;;;;5013468;28;20038;-89
2021/06/09 03:08:03;;;;;;;;;;;16.20;99.90;;;;;;5053855;28;20068;-89
2021/06/09 03:10:48;;;;;;;4.65;4.25;;;16.20;99.90;;;;;;5057823;28;19912;-89
2021/06/09 03:13:26;;;;;;;4.50;4.10;;;16.30;99.90;;;;;;5058064;28;20033;-89
2021/06/09 03:16:05;;;;;;;5.63;5.13;;;16.40;99.90;;;;;;5058618;28;20043;-89
2021/06/09 03:18:40;;;;;;;5.35;4.88;;;16.50;99.90;;;;;;5057849;28;20174;-89
2021/06/09 03:21:11;;;;;;;5.03;4.47;;;16.50;99.90;;;;;;5057675;28;20028;-89
2021/06/09 03:23:46;;;;;;;5.15;4.75;;;16.60;99.90;;;;;;5057894;28;20036;-88
2021/06/09 03:26:26;;;;;;;7.15;5.50;;;16.70;99.90;;;;;;5058399;28;20103;-88
2021/06/09 03:28:59;;;;;;;5.72;5.07;;;16.70;99.90;;;;;;5058162;28;20028;-88
2021/06/09 03:31:32;;;;;;;5.00;4.50;;;16.80;99.90;;;;;;5057642;28;20028;-88
2021/06/09 03:33:59;;;;;;;5.35;4.55;;;16.90;99.90;;;;;;5057819;28;20021;-89
2021/06/09 03:36:29;;;;;;;5.30;4.90;;;17.00;99.90;;;;;;5059669;28;20025;-89
2021/06/09 03:39:06;;;;;;;5.35;4.30;;;17.10;99.90;;;;;;5077102;28;20043;-90
2021/06/09 03:41:35;;;;;;;5.00;4.60;;;17.20;99.90;;;;;;5061225;28;20029;-89
2021/06/09 03:44:02;;;;;;;5.20;4.78;;;17.30;99.90;;;;;;5061532;28;20024;-89
2021/06/09 03:46:29;;;;;;;4.85;4.45;;;17.40;99.90;;;;;;5058854;28;20091;-89
2021/06/09 03:48:57;;;;;;;5.32;4.82;;;17.50;99.90;;;;;;5066749;28;20028;-88
2021/06/09 03:51:24;;;;;;;4.32;4.03;;;17.70;99.90;;;;;;5072172;28;20028;-88
2021/06/09 03:53:52;;;;;;;5.15;4.72;;;17.80;99.90;;;;;;5068368;28;20115;-89
2021/06/09 03:56:18;;;;;;;5.15;4.65;;;17.90;99.90;;;;;;5067111;28;20031;-87
2021/06/09 03:58:45;;;;;;;5.18;4.60;;;18.00;99.90;;;;;;5088149;28;20044;-88
2021/06/09 04:01:12;;;;;;;5.28;4.75;;;18.10;99.90;;;;;;5057190;28;20389;-88
2021/06/09 04:03:40;;;;;;;4.47;4.10;;;18.20;99.90;;;;;;5057131;28;20024;-88
2021/06/09 04:06:08;;;;;;;6.20;4.60;;;18.30;99.90;;;;;;5058328;28;20028;-87
2021/06/09 04:08:36;;;;;;;4.35;3.95;;;18.40;99.90;;;;;;5058198;28;20391;-88
2021/06/09 04:11:02;;;;;;;4.57;4.18;;;18.50;99.90;;;;;;5057331;28;20097;-88
2021/06/09 04:13:30;;;;;;;4.63;4.22;;;18.60;99.90;;;;;;5057846;28;20020;-89
2021/06/09 04:16:00;;;;;;;8.23;4.05;;;18.70;99.90;;;;;;5057608;28;20462;-88
2021/06/09 04:18:29;;;;;;;4.28;3.75;;;18.80;99.90;;;;;;5055834;28;20036;-88
2021/06/09 04:20:57;;;;;;;5.65;4.13;;;18.90;99.90;;;;;;5056937;28;20028;-88
2021/06/09 04:23:23;;;;;;;5.70;3.55;;;19.00;99.70;;;;;;5074592;28;20405;-88
2021/06/09 04:25:49;;;;;;;4.03;3.63;;;19.10;99.50;;;;;;5056574;28;20082;-88
2021/06/09 04:28:19;;;;;;;3.70;3.40;;;19.20;99.10;;;;;;5057127;28;20466;-87
2021/06/09 04:30:46;;;;;;;3.75;3.40;;;19.30;98.70;;;;;;5056358;28;20441;-88
2021/06/09 04:33:12;;;;;;;3.83;3.50;;;19.40;98.40;;;;;;5074307;28;20059;-88
2021/06/09 04:35:41;;;;;;;3.53;3.22;;;19.50;98.00;;;;;;5056326;28;20049;-88
2021/06/09 04:38:12;;;;;;;3.80;3.50;;;19.60;97.80;;;;;;5056217;28;20037;-88
2021/06/09 04:40:38;;;;;;;3.58;3.28;;;19.70;97.40;;;;;;5076908;28;20017;-88
2021/06/09 04:43:04;;;;;;;3.78;3.47;;;19.80;97.20;;;;;;5074821;28;20451;-88
2021/06/09 04:45:30;;;;;;;3.42;3.13;;;20.00;96.90;;;;;;5055985;28;20439;-88
2021/06/09 04:47:56;;;;;;;3.30;3.10;;;20.00;96.60;;;;;;5056029;28;20028;-89
2021/06/09 04:50:24;;;;;;;4.32;3.05;;;20.20;96.30;;;;;;5056152;28;20357;-88
2021/06/09 04:52:52;;;;;;;4.72;3.30;;;20.30;96.00;;;;;;5056271;28;20017;-88
2021/06/09 04:55:19;;;;;;;3.40;3.15;;;20.40;95.50;;;;;;5055806;28;20029;-88
2021/06/09 04:57:46;;;;;;;3.00;2.70;;;20.60;94.70;;;;;;5055876;28;20067;-88
2021/06/09 05:00:15;;;;;;;5.13;2.92;;;20.70;94.20;;;;;;5075449;28;20048;-88
2021/06/09 05:02:41;;;;;;;3.35;3.15;;;21.00;93.50;;;;;;5056673;28;20130;-88
2021/06/09 05:05:08;;;;;;;2.75;2.55;;;21.10;93.00;;;;;;5056597;28;20020;-89
2021/06/09 05:07:33;;;;;;;2.80;2.60;;;21.30;92.20;;;;;;5056037;28;20691;-89
2021/06/09 05:09:59;;;;;;;3.08;2.88;;;21.50;91.30;;;;;;5073646;28;20051;-87
2021/06/09 05:12:47;;;;;;;3.03;2.72;;;21.70;91.20;;;;;;5054169;28;20032;-87
2021/06/09 05:15:14;;;;;;;5.22;2.70;;;22.10;91.10;;;;;;5053610;28;20048;-87
2021/06/09 05:17:46;;;;;;;2.90;2.70;;;22.50;92.10;;;;;;5072110;28;20036;-88
2021/06/09 05:20:34;;;;;;;2.90;2.63;;;23.00;91.70;;;;;;5054687;28;20025;-88
2021/06/09 05:23:38;;;;;;;2.97;2.28;;;23.60;90.40;;;;;;5073373;28;20028;-89
2021/06/09 05:26:05;;;;;;;2.60;2.40;;;24.00;80.40;;;;;;5073672;28;20059;-88
2021/06/09 05:28:39;;;;;;;2.47;2.28;;;24.40;86.50;;;;;;5055393;28;20139;-90
2021/06/09 05:31:06;;;;;;;2.50;2.30;;;24.70;82.40;;;;;;5073907;28;20461;-89
2021/06/09 05:33:32;;;;;;;2.15;2.05;;;24.90;81.20;;;;;;5055478;28;20024;-88
2021/06/09 05:35:59;;;;;;;2.22;2.03;;;25.10;80.10;;;;;;5056181;28;20032;-89
2021/06/09 05:38:25;;;;;;;2.25;2.13;;;25.40;78.80;;;;;;5056063;28;20032;-88
2021/06/09 05:40:56;;;;;;;2.47;2.00;;;25.70;76.80;;;;;;5053958;28;20045;-87
2021/06/09 05:43:24;;;;;;;2.28;2.15;;;26.10;73.80;;;;;;5054176;28;20079;-89
2021/06/09 05:45:51;;;;;;;3.55;2.00;;;26.20;73.30;;;;;;5054780;28;20507;-89
2021/06/09 05:48:18;;;;;;;1.83;1.73;;;26.60;72.50;;;;;;5054509;28;20111;-89
2021/06/09 05:50:50;;;;;;;2.15;1.70;;;27.00;71.30;;;;;;5055321;28;20033;-88
2021/06/09 05:53:16;;;;;;;2.65;2.03;;;27.30;69.20;;;;;;5054715;28;20366;-88
2021/06/09 05:55:47;;;;;;;2.45;1.83;;;27.60;68.60;;;;;;5056605;28;20043;-89
2021/06/09 05:58:16;;;;;;;2.70;1.80;;;27.90;67.20;;;;;;5055430;28;20033;-88
2021/06/09 06:00:43;;;;;;;1.83;1.73;;;28.20;66.70;;;;;;5054207;28;20029;-89
2021/06/09 06:03:09;;;;;;;2.58;1.85;;;28.60;66.10;;;;;;5073108;28;20428;-88
2021/06/09 06:05:36;;;;;;;2.00;1.90;;;28.90;65.10;;;;;;5052966;28;20055;-90
2021/06/09 06:08:03;;;;;;;1.83;1.73;;;29.20;63.90;;;;;;5054515;28;20020;-89
2021/06/09 06:10:29;;;;;;;1.75;1.65;;;29.40;63.10;;;;;;5054247;28;20111;-90
2021/06/09 06:12:56;;;;;;;2.88;1.63;;;29.60;62.30;;;;;;5055186;28;20140;-90
2021/06/09 06:15:24;;;;;;;1.90;1.80;;;29.90;61.40;;;;;;5071816;28;20092;-89
2021/06/09 06:17:50;;;;;;;2.20;1.80;;;30.10;60.70;;;;;;5054974;28;20478;-88
2021/06/09 06:20:18;;;;;;;3.20;1.60;;;30.20;60.10;;;;;;5071440;28;20021;-88
2021/06/09 06:22:45;;;;;;;2.20;1.92;;;30.40;59.60;;;;;;5053014;28;20043;-90
2021/06/09 06:25:16;;;;;;;1.67;1.58;;;30.70;58.90;;;;;;5052868;28;20111;-90
2021/06/09 06:27:44;;;;;;;2.25;2.00;;;30.90;58.50;;;;;;5052991;28;20104;-89
2021/06/09 06:30:11;;;;;;;3.80;1.88;;;31.10;58.20;;;;;;5054081;28;20075;-90
2021/06/09 06:32:38;;;;;;;4.38;1.63;;;31.20;57.50;;;;;;5052800;28;20020;-90
2021/06/09 06:35:05;;;;;;;1.67;1.58;;;31.50;56.80;;;;;;5057975;28;20032;-89
2021/06/09 06:37:31;;;;;;;1.77;1.67;;;31.60;56.50;;;;;;5053201;28;20025;-89
2021/06/09 06:39:57;;;;;;;1.60;1.50;;;31.90;56.40;;;;;;5053447;28;20074;-90
2021/06/09 06:42:23;;;;;;;1.80;1.70;;;32.20;55.20;;;;;;5058021;28;20032;-90
2021/06/09 06:44:49;;;;;;;1.58;1.38;;;32.40;54.30;;;;;;5060268;28;20544;-90
2021/06/09 06:47:18;;;;;;;1.52;1.42;;;32.50;53.40;;;;;;5060667;28;20028;-90
2021/06/09 06:49:45;;;;;;;2.90;1.40;;;32.60;52.80;;;;;;5058867;28;20401;-89
2021/06/09 06:52:11;;;;;;;2.13;1.70;;;32.60;52.80;;;;;;5058609;28;20020;-90
2021/06/09 06:54:37;;;;;;;1.58;1.48;;;32.80;52.90;;;;;;5059075;28;20039;-89
2021/06/09 06:57:03;;;;;;;1.65;1.55;;;33.00;52.20;;;;;;5058880;28;20028;-89
2021/06/09 06:59:30;;;;;;;2.72;1.42;;;33.10;52.30;;;;;;5059223;28;20037;-89
2021/06/09 07:01:57;;;;;;;1.30;1.20;;;33.20;51.50;;;;;;5055880;28;20130;-90
2021/06/09 07:04:24;;;;;;;1.45;1.35;;;33.40;51.30;;;;;;5057347;28;20020;-89
2021/06/09 07:06:51;;;;;;;2.63;1.17;;;33.70;50.50;;;;;;5041600;28;20036;-90
2021/06/09 07:09:19;;;;;;;1.13;1.02;;;33.90;50.10;;;;;;5059766;28;20078;-90
2021/06/09 07:11:47;;;;;;;1.40;1.20;;;34.10;49.40;;;;;;5076624;28;20040;-90
2021/06/09 07:14:14;;;;;;;1.35;1.25;;;34.30;48.90;;;;;;5056957;28;20059;-88
2021/06/09 07:16:43;;;;;;;2.08;1.70;;;34.40;48.50;;;;;;5057608;28;20032;-88
2021/06/09 07:19:11;;;;;;;1.20;1.10;;;34.40;47.80;;;;;;5041492;28;20048;-90
2021/06/09 07:21:39;;;;;;;1.30;1.20;;;34.40;48.00;;;;;;5058359;28;20032;-90
2021/06/09 07:24:06;;;;;;;2.85;1.35;;;34.60;47.90;;;;;;5057896;28;20115;-91
2021/06/09 07:26:39;;;;;;;1.42;1.30;;;34.70;47.70;;;;;;5057638;28;20062;-91
2021/06/09 07:29:05;;;;;;;;;;;35.00;47.10;;;;;;5057096;28;20024;-91
2021/06/09 07:31:34;;;;;;;1.70;1.60;;;35.00;45.80;;;;;;5057777;28;19912;-92
2021/06/09 07:34:00;;;;;;;1.48;1.38;;;35.10;46.90;;;;;;5060974;28;20019;-91
2021/06/09 07:36:46;;;;;;;1.98;1.60;;;35.30;46.80;;;;;;5059398;28;20056;-91
2021/06/09 07:39:21;;;;;;;1.38;1.27;;;35.80;46.10;;;;;;5057043;28;20036;-91
2021/06/09 07:41:48;;;;;;;1.27;1.23;;;35.80;45.00;;;;;;5056353;28;20488;-90
2021/06/09 07:44:20;;;;;;;1.40;1.30;;;36.00;45.70;;;;;;5040743;28;20044;-92
2021/06/09 07:46:50;;;;;;;1.25;1.15;;;36.10;45.50;;;;;;5058739;28;20056;-91
2021/06/09 07:49:19;;;;;;;1.30;1.20;;;36.30;45.40;;;;;;5056806;28;20021;-90
2021/06/09 07:51:45;;;;;;;1.33;1.23;;;36.50;45.20;;;;;;5056124;28;20039;-92
2021/06/09 07:54:13;;;;;;;1.40;1.30;;;36.70;44.80;;;;;;5058041;28;20028;-92
2021/06/09 07:56:49;;;;;;;2.88;1.10;;;36.80;44.60;;;;;;5055652;28;20087;-91
2021/06/09 07:59:21;;;;;;;1.23;1.20;;;37.00;44.30;;;;;;5075488;28;20040;-91
2021/06/09 08:01:50;;;;;;;1.40;1.30;;;37.30;44.10;;;;;;5047135;28;20105;-90
2021/06/09 08:04:16;;;;;;;3.80;1.52;;;37.40;43.60;;;;;;5060653;28;20032;-91
2021/06/09 08:06:45;;;;;;;1.30;1.20;;;37.50;43.40;;;;;;5058689;28;20028;-91
2021/06/09 08:09:14;;;;;;;1.45;1.35;;;37.40;43.10;;;;;;5055333;28;20480;-92
2021/06/09 08:11:44;;;;;;;2.90;1.25;;;37.40;43.40;;;;;;5055227;28;20033;-91
2021/06/09 08:14:14;;;;;;;1.27;1.17;;;37.40;43.40;;;;;;5057694;28;20112;-91
2021/06/09 08:16:40;;;;;;;1.02;1.02;;;37.70;43.00;;;;;;5055496;28;20167;-90
2021/06/09 08:19:09;;;;;;;1.35;1.23;;;37.90;42.10;;;;;;5055738;28;20193;-89
2021/06/09 08:21:35;;;;;;;1.80;1.40;;;37.90;42.30;;;;;;5055678;28;20111;-92
2021/06/09 08:24:02;;;;;;;1.40;1.30;;;38.10;42.20;;;;;;5056925;28;20098;-90
2021/06/09 08:26:28;;;;;;;1.42;1.30;;;38.30;41.80;;;;;;5057573;28;20069;-89
2021/06/09 08:28:56;;;;;;;1.90;1.40;;;38.30;41.70;;;;;;5074462;28;20040;-91
2021/06/09 08:31:28;;;;;;;1.30;1.20;;;38.50;41.90;;;;;;5056378;28;20092;-89
2021/06/09 08:33:55;;;;;;;;;;;38.70;41.50;;;;;;5055186;28;20398;-90
2021/06/09 08:36:21;;;;;;;1.10;1.10;;;38.60;41.20;;;;;;5055727;28;19904;-89
2021/06/09 08:38:54;;;;;;;1.92;1.60;;;38.60;41.70;;;;;;5053915;28;20040;-90
2021/06/09 08:41:27;;;;;;;1.70;1.40;;;38.70;41.10;;;;;;5052666;28;20076;-91
2021/06/09 08:43:53;;;;;;;1.20;1.20;;;38.60;40.90;;;;;;5054378;28;20040;-89
2021/06/09 08:46:19;;;;;;;4.03;1.50;;;38.80;41.00;;;;;;5054435;28;20055;-90
2021/06/09 08:48:46;;;;;;;3.75;1.50;;;39.10;40.60;;;;;;5054704;28;20397;-89
2021/06/09 08:51:15;;;;;;;1.40;1.30;;;39.20;40.60;;;;;;5053983;28;20016;-90
2021/06/09 08:53:50;;;;;;;1.58;1.38;;;39.20;40.40;;;;;;5054732;28;20040;-90
2021/06/09 08:56:17;;;;;;;3.05;1.00;;;39.00;40.40;;;;;;5054364;28;20075;-90
2021/06/09 08:58:46;;;;;;;3.90;1.20;;;39.00;40.50;;;;;;5058378;28;20123;-88
2021/06/09 09:01:14;;;;;;;2.15;1.40;;;38.90;40.60;;;;;;5055807;28;20060;-90
2021/06/09 09:03:45;;;;;;;1.85;1.30;;;39.00;40.60;;;;;;5056055;28;20056;-90
2021/06/09 09:06:20;;;;;;;3.72;1.13;;;39.40;40.40;;;;;;5060232;28;20020;-90
2021/06/09 09:08:46;;;;;;;1.80;1.27;;;39.60;40.40;;;;;;5057534;28;20041;-91
2021/06/09 09:11:15;;;;;;;5.05;1.73;;;40.00;40.20;;;;;;5059935;28;20036;-89
2021/06/09 09:13:41;;;;;;;1.25;1.20;;;40.40;39.70;;;;;;5060788;28;20064;-89
2021/06/09 09:16:07;;;;;;;3.13;1.20;;;40.50;39.30;;;;;;5068300;28;20028;-89
2021/06/09 09:18:59;;;;;;;1.15;0.93;;;40.80;39.20;;;;;;5063444;28;20032;-90
2021/06/09 09:21:39;;;;;;;1.55;0.88;;;41.00;37.40;;;;;;5059636;28;20115;-90
2021/06/09 09:24:09;;;;;;;3.50;1.10;;;41.30;37.50;;;;;;5056767;28;20094;-90
2021/06/09 09:26:36;;;;;;;1.02;0.93;;;41.40;38.60;;;;;;5055470;28;20430;-91
2021/06/09 09:29:20;;;;;;;1.40;1.30;;;41.60;38.10;;;;;;5055624;28;20032;-89
2021/06/09 09:31:49;;;;;;;1.10;1.10;;;41.70;36.40;;;;;;5053933;28;20024;-89
2021/06/09 09:34:48;;;;;;;1.42;1.10;;;41.50;37.50;;;;;;5054414;28;20066;-90
2021/06/09 09:37:18;;;;;;;1.58;1.05;;;41.60;37.20;;;;;;5054963;28;20032;-90
2021/06/09 09:39:47;;;;;;;1.30;1.20;;;41.60;37.50;;;;;;5054772;28;20497;-90
2021/06/09 09:42:20;;;;;;;2.92;1.00;;;41.60;37.40;;;;;;5055765;28;20474;-89
2021/06/09 09:44:48;;;;;;;1.50;1.05;;;41.80;36.90;;;;;;5055395;28;20082;-88
2021/06/09 09:47:16;;;;;;;1.85;1.20;;;41.60;37.80;;;;;;5055080;28;20249;-90
2021/06/09 09:49:42;;;;;;;1.65;1.10;;;41.40;37.00;;;;;;5073402;28;20032;-91
2021/06/09 09:52:08;;;;;;;0.90;0.90;;;41.40;37.20;;;;;;5056979;28;20031;-91
2021/06/09 09:54:36;;;;;;;1.60;1.40;;;41.50;37.30;;;;;;5063140;28;20123;-90
2021/06/09 09:57:13;;;;;;;1.05;1.05;;;41.70;37.10;;;;;;5064737;28;20052;-90
2021/06/09 09:59:54;;;;;;;0.80;0.80;;;42.10;36.60;;;;;;5059302;28;20032;-92
2021/06/09 10:02:20;;;;;;;1.08;1.00;;;42.20;36.30;;;;;;5055389;28;20028;-90
2021/06/09 10:04:58;;;;;;;2.40;0.95;;;42.40;36.80;;;;;;5055952;28;20032;-91
2021/06/09 10:07:24;;;;;;;0.85;0.85;;;42.70;36.60;;;;;;5055364;28;20021;-89
2021/06/09 10:09:50;;;;;;;1.40;1.20;;;43.00;36.20;;;;;;5056612;28;19939;-90
2021/06/09 10:12:16;;;;;;;0.90;0.88;;;42.80;35.90;;;;;;5057350;28;20044;-90
2021/06/09 10:14:48;;;;;;;1.98;0.90;;;42.60;36.10;;;;;;5065934;28;20025;-91
2021/06/09 10:17:25;;;;;;;2.15;0.90;;;42.60;35.80;;;;;;5061877;28;20089;-91
2021/06/09 10:19:54;;;;;;;1.38;0.85;;;42.90;35.70;;;;;;5067843;28;20033;-93
2021/06/09 10:23:43;;;;;;;1.42;1.10;;;43.10;34.00;;;;;;5134222;27;20374;-91
2021/06/09 10:26:12;;;;;;;1.20;1.00;;;42.80;34.90;;;;;;5120444;28;20096;-90
2021/06/09 10:29:01;;;;;;;2.47;0.90;;;42.40;35.40;;;;;;5123234;28;20058;-90
2021/06/09 10:31:41;;;;;;;0.82;0.82;;;42.10;34.30;;;;;;5107413;28;20043;-91
2021/06/09 10:34:07;;;;;;;0.98;0.90;;;42.00;35.70;;;;;;5111128;28;20104;-90
2021/06/09 10:36:34;;;;;;;1.17;1.02;;;41.80;35.80;;;;;;5111186;28;20016;-89
2021/06/09 10:39:01;;;;;;;1.00;1.00;;;41.10;35.40;;;;;;5108903;28;20083;-90
2021/06/09 10:41:28;;;;;;;1.58;1.00;;;40.50;36.10;;;;;;5109866;28;20024;-89
2021/06/09 10:44:02;;;;;;;1.17;1.08;;;40.10;36.20;;;;;;5112212;28;20485;-91
2021/06/09 10:46:28;;;;;;;2.08;1.20;;;39.70;36.80;;;;;;5109747;28;20099;-90
2021/06/09 10:48:59;;;;;;;0.98;0.88;;;39.80;37.30;;;;;;5111200;28;20063;-89
2021/06/09 10:51:26;;;;;;;2.63;0.95;;;40.20;37.10;;;;;;5111717;28;20024;-89
2021/06/09 10:53:53;;;;;;;0.70;0.70;;;40.00;36.70;;;;;;5111507;28;20490;-91
2021/06/09 10:56:20;;;;;;;0.80;0.80;;;39.60;36.70;;;;;;5112264;28;20020;-89
2021/06/09 10:58:46;;;;;;;1.65;1.10;;;39.60;37.10;;;;;;5108894;28;20028;-89
2021/06/09 11:01:14;;;;;;;1.40;1.30;;;39.60;37.50;;;;;;5110755;28;20024;-90
2021/06/09 11:03:44;;;;;;;1.42;1.10;;;39.90;37.70;;;;;;5107645;28;20044;-88
2021/06/09 11:06:10;;;;;;;1.50;1.02;;;40.60;37.40;;;;;;5107800;28;20024;-90
2021/06/09 11:08:36;;;;;;;1.40;1.30;;;41.20;37.10;;;;;;5107696;28;20031;-91
2021/06/09 11:11:02;;;;;;;1.65;1.55;;;41.70;36.90;;;;;;5107618;28;20032;-90
2021/06/09 11:13:37;;;;;;;4.18;1.30;;;42.00;36.70;;;;;;5108361;28;20030;-91
2021/06/09 11:16:12;;;;;;;1.55;1.45;;;42.30;35.30;;;;;;5109713;28;20392;-91
2021/06/09 11:18:43;;;;;;;1.40;1.30;;;41.40;35.20;;;;;;5108937;28;20020;-90
2021/06/09 11:21:12;;;;;;;1.13;1.10;;;40.00;36.10;;;;;;5109368;28;20032;-90
2021/06/09 11:23:40;;;;;;;6.30;1.23;;;39.00;37.30;;;;;;5116165;28;20044;-90
2021/06/09 11:26:07;;;;;;;1.50;1.40;;;38.70;37.90;;;;;;5113084;28;20381;-92
2021/06/09 11:28:33;;;;;;;1.15;1.13;;;38.90;38.10;;;;;;5109309;28;20031;-91
2021/06/09 11:31:09;;;;;;;0.93;0.90;;;39.40;38.10;;;;;;5107141;28;20157;-91
2021/06/09 11:33:36;;;;;;;2.38;1.00;;;39.90;37.60;;;;;;5101020;28;20040;-91
2021/06/09 11:36:12;;;;;;;1.10;1.00;;;40.40;36.70;;;;;;5095825;28;20099;-91
2021/06/09 11:38:40;;;;;;;1.30;0.90;;;40.90;35.80;;;;;;5100533;28;20036;-91
2021/06/09 11:44:29;;;;;;;1.05;0.80;;;41.80;35.00;;;;;;5057682;28;20049;-91
2021/06/09 11:47:17;;;;;;;1.17;1.08;;;42.20;35.70;;;;;;5041113;28;20032;-92
2021/06/09 11:49:43;;;;;;;1.08;0.90;;;42.30;34.50;;;;;;5038924;28;20544;-92
2021/06/09 11:52:09;;;;;;;1.42;1.10;;;41.60;34.90;;;;;;5038103;28;20040;-90
2021/06/09 11:54:36;;;;;;;1.92;1.20;;;41.00;35.70;;;;;;5039090;28;20440;-92
2021/06/09 11:57:13;;;;;;;2.55;1.20;;;41.00;35.90;;;;;;5056143;28;20082;-92
2021/06/09 11:59:43;;;;;;;4.20;1.40;;;41.10;36.10;;;;;;5039374;28;20021;-90
2021/06/09 12:02:29;;;;;;;1.10;1.10;;;41.50;35.80;;;;;;5039157;28;20045;-91
2021/06/09 12:04:56;;;;;;;1.20;1.10;;;41.30;35.00;;;;;;5039168;28;20029;-91
2021/06/09 12:07:26;;;;;;;2.28;1.02;;;41.00;35.60;;;;;;5038714;28;20052;-91
2021/06/09 12:10:09;;;;;;;1.48;1.08;;;41.20;36.00;;;;;;5043392;28;20114;-92
2021/06/09 12:12:36;;;;;;;1.35;1.25;;;41.50;35.80;;;;;;5041575;28;20025;-91
2021/06/09 12:15:11;;;;;;;1.00;1.00;;;41.20;35.60;;;;;;5043383;28;20386;-92
2021/06/09 12:17:40;;;;;;;1.40;1.30;;;41.00;36.20;;;;;;5039951;28;20036;-91
2021/06/09 12:20:08;;;;;;;1.10;1.10;;;41.20;36.30;;;;;;5039647;28;20021;-92
2021/06/09 12:22:39;;;;;;;1.20;1.20;;;41.70;36.00;;;;;;5037946;28;20041;-91
2021/06/09 12:25:07;;;;;;;1.20;1.15;;;42.20;35.60;;;;;;5042325;28;20453;-91
2021/06/09 12:27:35;;;;;;;1.50;1.40;;;42.30;35.40;;;;;;5044998;28;20056;-90
2021/06/09 12:30:06;;;;;;;1.58;1.42;;;42.50;35.10;;;;;;5044415;28;20025;-90
2021/06/09 12:32:36;;;;;;;1.50;1.40;;;42.10;35.10;;;;;;5042206;28;20036;-90
2021/06/09 12:35:08;;;;;;;1.40;1.30;;;41.90;35.40;;;;;;5037633;28;20036;-91
2021/06/09 12:37:39;;;;;;;2.55;1.20;;;41.90;35.40;;;;;;5040063;28;20037;-91
2021/06/09 12:40:18;;;;;;;1.80;1.02;;;41.90;35.10;;;;;;5037650;28;20125;-91
2021/06/09 12:42:50;;;;;;;3.58;1.30;;;42.10;35.00;;;;;;5036953;28;20124;-91
2021/06/09 12:45:16;;;;;;;1.77;1.05;;;42.50;34.60;;;;;;5037288;28;20167;-91
2021/06/09 12:47:43;;;;;;;0.93;0.93;;;42.80;34.40;;;;;;5056349;28;20029;-89
2021/06/09 12:50:15;;;;;;;1.10;1.00;;;43.10;34.20;;;;;;5038465;28;20045;-89
2021/06/09 12:52:42;;;;;;;1.00;1.00;;;43.60;34.20;;;;;;5040911;28;20033;-90
2021/06/09 12:55:35;;;;;;;1.45;1.10;;;43.70;33.80;;;;;;5037392;28;20021;-92
2021/06/09 12:58:09;;;;;;;0.95;0.93;;;43.50;33.30;;;;;;5035127;28;20552;-90
2021/06/09 13:00:36;;;;;;;1.48;1.25;;;43.50;34.00;;;;;;5039973;28;20063;-90
2021/06/09 13:03:46;;;;;;;1.10;1.02;;;43.20;33.80;;;;;;5036058;28;20052;-91
2021/06/09 13:06:25;;;;;;;1.25;1.00;;;42.00;33.80;;;;;;4954196;28;20563;-90